createdAt,value
2023-08-24T00:02:44.776Z,19.5
2023-08-24T00:08:03.263Z,19.44
2023-08-24T00:13:21.701Z,19.37
2023-08-24T00:18:40.236Z,19.37
2023-08-24T00:23:58.590Z,19.44
2023-08-24T00:29:17.238Z,19.44
2023-08-24T00:34:35.819Z,19.44
2023-08-24T00:39:54.503Z,19.5
2023-08-24T00:45:13.053Z,19.44
2023-08-24T00:50:31.607Z,19.5
2023-08-24T00:55:50.296Z,19.69
2023-08-24T01:01:09.004Z,19.94
2023-08-24T01:06:27.589Z,19.81
2023-08-24T01:16:44.901Z,19.87
2023-08-24T01:22:03.007Z,19.75
2023-08-24T01:27:21.673Z,19.31
2023-08-24T01:32:40.307Z,19.25
2023-08-24T01:37:58.375Z,19.06
2023-08-24T01:43:20.171Z,18.94
2023-08-24T01:48:35.519Z,18.87
2023-08-24T01:53:54.168Z,18.75
2023-08-24T01:59:12.809Z,18.75
2023-08-24T02:04:31.136Z,18.69
2023-08-24T02:09:49.369Z,18.62
2023-08-24T02:15:08.088Z,18.62
2023-08-24T02:20:26.727Z,18.62
2023-08-24T02:25:45.068Z,18.56
2023-08-24T02:31:04.777Z,18.56
2023-08-24T02:36:23.148Z,18.56
2023-08-24T02:41:41.550Z,18.56
2023-08-24T02:47:00.158Z,18.56
2023-08-24T02:52:18.920Z,18.44
2023-08-24T02:57:37.453Z,18.25
2023-08-24T03:02:56.069Z,18.25
2023-08-24T03:08:14.610Z,18.31
2023-08-24T03:13:33.169Z,18.31
2023-08-24T03:18:51.784Z,18.37
2023-08-24T03:24:10.089Z,18.56
2023-08-24T03:29:28.774Z,18.75
2023-08-24T03:34:47.358Z,18.69
2023-08-24T03:40:06.018Z,18.56
2023-08-24T03:45:24.633Z,18.44
2023-08-24T03:50:43.279Z,18.37
2023-08-24T03:56:01.896Z,18.31
2023-08-24T04:01:20.617Z,18.37
2023-08-24T04:06:39.136Z,18.5
2023-08-24T04:11:57.766Z,18.75
2023-08-24T04:17:16.133Z,19.12
2023-08-24T04:22:34.947Z,19.31
2023-08-24T04:27:53.444Z,19.19
2023-08-24T04:33:11.947Z,19.25
2023-08-24T04:38:30.294Z,19.12
2023-08-24T04:43:48.921Z,19.12
2023-08-24T04:49:07.174Z,19.19
2023-08-24T04:54:25.367Z,19.12
2023-08-24T04:59:44.010Z,19.12
2023-08-24T05:05:02.566Z,19.19
2023-08-24T05:10:21.264Z,19.31
2023-08-24T05:15:40.040Z,19.44
2023-08-24T05:20:58.308Z,19.5
2023-08-24T05:26:16.836Z,19.62
2023-08-24T05:31:35.504Z,19.81
2023-08-24T05:36:54.358Z,19.75
2023-08-24T05:42:13.056Z,19.94
2023-08-24T05:47:31.929Z,19.81
2023-08-24T05:52:50.576Z,19.81
2023-08-24T05:58:08.809Z,19.62
2023-08-24T06:03:27.392Z,19.44
2023-08-24T06:08:46.015Z,19.56
2023-08-24T06:14:04.346Z,19.56
2023-08-24T06:19:22.702Z,19.75
2023-08-24T06:24:41.161Z,19.69
2023-08-24T06:29:59.797Z,19.75
2023-08-24T06:35:18.552Z,19.75
2023-08-24T06:40:37.261Z,19.75
2023-08-24T06:45:56.323Z,19.87
2023-08-24T06:51:14.518Z,20.06
2023-08-24T06:56:33.197Z,20.12
2023-08-24T07:01:52.018Z,20.19
2023-08-24T07:07:10.641Z,20.31
2023-08-24T07:12:29.285Z,20.44
2023-08-24T07:17:47.705Z,20.75
2023-08-24T07:23:06.356Z,21.37
2023-08-24T07:28:24.618Z,21.69
2023-08-24T07:33:43.374Z,22
2023-08-24T07:39:01.889Z,23.06
2023-08-24T07:44:20.684Z,23.25
2023-08-24T07:49:39.511Z,23.31
2023-08-24T07:54:58.215Z,23.44
2023-08-24T08:00:16.906Z,23.56
2023-08-24T08:05:35.626Z,23.75
2023-08-24T08:10:53.807Z,23.75
2023-08-24T08:16:12.396Z,23.75
2023-08-24T08:21:30.643Z,24.31
2023-08-24T08:26:49.411Z,25.25
2023-08-24T08:32:07.961Z,26.31
2023-08-24T08:37:26.736Z,26.94
2023-08-24T08:42:45.796Z,27.87
2023-08-24T08:48:04.309Z,28.87
2023-08-24T08:53:22.945Z,29.12
2023-08-24T08:58:41.744Z,29.56
2023-08-24T09:04:00.004Z,28.81
2023-08-24T09:09:18.736Z,29.56
2023-08-24T09:14:37.556Z,29.12
2023-08-24T09:19:56.217Z,29.25
2023-08-24T09:25:15.441Z,29.5
2023-08-24T09:30:33.811Z,29.19
2023-08-24T09:35:51.793Z,30.5
2023-08-24T09:41:10.366Z,32.63
2023-08-24T09:46:28.777Z,32.63
2023-08-24T09:51:47.508Z,32.94
2023-08-24T09:57:06.328Z,32.06
2023-08-24T10:02:25.090Z,31.31
2023-08-24T10:07:43.842Z,30.81
2023-08-24T10:13:02.611Z,30.75
2023-08-24T10:18:20.938Z,30.94
2023-08-24T10:23:39.354Z,31.25
2023-08-24T10:28:58.313Z,31
2023-08-24T10:34:17.069Z,31.31
2023-08-24T10:39:35.749Z,32.25
2023-08-24T10:44:54.491Z,33.06
2023-08-24T10:50:13.252Z,32.31
2023-08-24T10:55:31.875Z,32.69
2023-08-24T11:00:50.702Z,32.44
2023-08-24T11:06:09.604Z,32.94
2023-08-24T11:11:28.800Z,33.44
2023-08-24T11:16:47.895Z,32.88
2023-08-24T11:22:06.198Z,32.69
2023-08-24T11:27:24.738Z,32.5
2023-08-24T11:32:43.462Z,33.44
2023-08-24T11:38:02.318Z,33
2023-08-24T11:43:20.495Z,32.19
2023-08-24T11:48:38.901Z,32.06
2023-08-24T11:53:57.153Z,31.81
2023-08-24T11:59:16.792Z,32.13
2023-08-24T12:04:35.136Z,31.5
2023-08-24T12:09:53.825Z,31.25
2023-08-24T12:15:12.033Z,31.44
2023-08-24T12:20:30.868Z,32
2023-08-24T12:25:49.498Z,32.69
2023-08-24T12:31:07.947Z,32.63
2023-08-24T12:36:26.058Z,32.06
2023-08-24T12:41:47.318Z,31.69
2023-08-24T12:57:19.369Z,31.56
2023-08-24T13:02:39.388Z,32.06
2023-08-24T13:07:55.904Z,32.13
2023-08-24T13:13:15.588Z,32.13
2023-08-24T13:18:34.136Z,32
2023-08-24T13:23:52.402Z,32.38
2023-08-24T13:29:11.013Z,33.38
2023-08-24T13:34:31.038Z,34.06
2023-08-24T13:39:49.723Z,32.81
2023-08-24T13:45:08.613Z,33.44
2023-08-24T13:50:27.146Z,32.44
2023-08-24T13:55:45.615Z,31.69
2023-08-24T14:06:10.446Z,31.25
2023-08-24T14:11:31.871Z,31.06
2023-08-24T14:16:51.200Z,30.62
2023-08-24T14:22:08.062Z,29.75
2023-08-24T14:27:26.083Z,29.44
2023-08-24T14:32:44.520Z,29
2023-08-24T14:38:03.030Z,28.31
2023-08-24T14:43:21.453Z,28.06
2023-08-24T14:48:40.109Z,27.44
2023-08-24T14:53:58.984Z,27.13
2023-08-24T14:59:16.999Z,26.56
2023-08-24T15:04:35.232Z,25.75
2023-08-24T15:09:53.821Z,25
2023-08-24T15:15:11.898Z,24.81
2023-08-24T15:20:31.480Z,24.81
2023-08-24T15:25:49.877Z,24.81
2023-08-24T15:31:08.156Z,25.19
2023-08-24T15:36:26.503Z,25.56
2023-08-24T15:41:45.332Z,25.75
2023-08-24T15:47:04.643Z,26.06
2023-08-24T15:52:22.976Z,26.31
2023-08-24T15:57:41.705Z,26.81
2023-08-24T16:03:00.490Z,26.87
2023-08-24T16:08:19.165Z,26.81
2023-08-24T16:13:37.486Z,26.62
2023-08-24T16:18:56.071Z,26.37
2023-08-24T16:24:14.584Z,26.25
2023-08-24T16:29:32.928Z,26.19
2023-08-24T16:34:51.490Z,26.06
2023-08-24T16:40:09.751Z,25.81
2023-08-24T16:45:28.466Z,25.56
2023-08-24T16:50:47.038Z,25.37
2023-08-24T16:56:05.543Z,25.25
2023-08-24T17:01:23.706Z,25.06
2023-08-24T17:06:41.894Z,25
2023-08-24T17:12:00.156Z,24.94
2023-08-24T17:17:18.744Z,24.94
2023-08-24T17:22:37.444Z,24.81
2023-08-24T17:27:56.019Z,25
2023-08-24T17:33:14.423Z,23.38
2023-08-24T17:38:33.511Z,20.56
2023-08-24T17:43:49.914Z,20.37
2023-08-24T17:49:07.831Z,20.31
2023-08-24T17:54:26.304Z,20.19
2023-08-24T17:59:44.978Z,20.06
2023-08-24T18:05:04.664Z,19.94
2023-08-24T18:10:22.430Z,20
2023-08-24T18:15:41.148Z,20.12
2023-08-24T18:20:59.379Z,20.19
2023-08-24T18:26:18.076Z,20.19
2023-08-24T18:31:36.815Z,20.25
2023-08-24T18:36:55.079Z,20.31
2023-08-24T18:42:13.723Z,20.25
2023-08-24T18:47:32.294Z,20.19
2023-08-24T18:52:50.846Z,20.37
2023-08-24T18:58:09.542Z,20.12
2023-08-24T19:03:28.383Z,20.31
2023-08-24T19:08:47.071Z,20.19
2023-08-24T19:14:05.263Z,20.25
2023-08-24T19:19:23.953Z,20.25
2023-08-24T19:24:42.599Z,20.44
2023-08-24T19:30:01.119Z,20.44
2023-08-24T19:35:19.865Z,20.31
2023-08-24T19:40:38.539Z,20.19
2023-08-24T19:45:57.031Z,20.12
2023-08-24T19:51:15.381Z,20.06
2023-08-24T19:56:34.089Z,20.06
2023-08-24T20:01:52.685Z,20
2023-08-24T20:07:10.998Z,20.12
2023-08-24T20:12:29.887Z,20
2023-08-24T20:17:48.257Z,19.94
2023-08-24T20:23:06.623Z,19.81
2023-08-24T20:28:25.281Z,19.81
2023-08-24T20:33:43.764Z,19.75
2023-08-24T20:39:02.444Z,19.75
2023-08-24T20:44:20.940Z,19.75
2023-08-24T20:49:39.479Z,19.69
2023-08-24T20:54:57.680Z,19.69
2023-08-24T21:00:15.964Z,19.69
2023-08-24T21:05:34.262Z,19.62
2023-08-24T21:10:52.587Z,19.62
2023-08-24T21:16:11.248Z,19.56
2023-08-24T21:21:29.711Z,19.56
2023-08-24T21:26:48.336Z,19.56
2023-08-24T21:32:07.300Z,19.5
2023-08-24T21:37:25.806Z,19.5
2023-08-24T21:42:44.418Z,19.5
2023-08-24T21:53:09.881Z,19.5
2023-08-24T21:58:28.613Z,19.5
2023-08-24T22:03:47.354Z,19.5
2023-08-24T22:09:05.589Z,19.56
2023-08-24T22:14:23.973Z,19.56
2023-08-24T22:19:42.331Z,19.56
2023-08-24T22:25:01.008Z,19.62
2023-08-24T22:30:19.598Z,19.69
2023-08-24T22:35:38.225Z,19.69
2023-08-24T22:40:56.826Z,19.81
2023-08-24T22:46:15.585Z,19.94
2023-08-24T22:51:34.058Z,19.69
2023-08-24T22:56:52.725Z,19.62
2023-08-24T23:02:11.021Z,19.5
2023-08-24T23:07:29.634Z,19.44
2023-08-24T23:12:47.874Z,19.44
2023-08-24T23:18:06.501Z,19.44
2023-08-24T23:23:25.215Z,19.44
2023-08-24T23:28:43.947Z,19.44
2023-08-24T23:34:02.222Z,19.37
2023-08-24T23:39:20.605Z,19.31
2023-08-24T23:44:39.255Z,19.31
2023-08-24T23:49:57.797Z,19.25
2023-08-24T23:55:16.570Z,19.25
